sensor_id;sensor_type;location;lat;lon;timestamp;pressure;altitude;pressure_sealevel;temperature;humidity
71151;BME280;59071;42.138;24.768;2023-08-31T00:00:01;98845.25;;;26.75;37.07
71151;BME280;59071;42.138;24.768;2023-08-31T00:02:26;98845.50;;;26.82;36.96
71151;BME280;59071;42.138;24.768;2023-08-31T00:04:52;98846.31;;;26.62;37.65
71151;BME280;59071;42.138;24.768;2023-08-31T00:07:20;98849.19;;;26.57;37.60
71151;BME280;59071;42.138;24.768;2023-08-31T00:09:46;98839.94;;;26.49;37.40
71151;BME280;59071;42.138;24.768;2023-08-31T00:12:12;98840.38;;;26.60;37.01
71151;BME280;59071;42.138;24.768;2023-08-31T00:14:38;98847.25;;;26.57;37.26
71151;BME280;59071;42.138;24.768;2023-08-31T00:17:04;98839.16;;;26.48;37.33
71151;BME280;59071;42.138;24.768;2023-08-31T00:19:30;98849.84;;;26.62;37.11
71151;BME280;59071;42.138;24.768;2023-08-31T00:21:55;98853.16;;;26.68;37.22
71151;BME280;59071;42.138;24.768;2023-08-31T00:24:21;98848.88;;;26.58;37.12
71151;BME280;59071;42.138;24.768;2023-08-31T00:26:48;98840.81;;;26.41;37.44
71151;BME280;59071;42.138;24.768;2023-08-31T00:29:16;98848.44;;;26.47;37.14
71151;BME280;59071;42.138;24.768;2023-08-31T00:31:41;98862.09;;;26.47;37.05
71151;BME280;59071;42.138;24.768;2023-08-31T00:34:10;98855.22;;;26.41;37.19
71151;BME280;59071;42.138;24.768;2023-08-31T00:36:43;98857.75;;;26.46;37.11
71151;BME280;59071;42.138;24.768;2023-08-31T00:39:08;98853.09;;;26.26;37.27
71151;BME280;59071;42.138;24.768;2023-08-31T00:41:36;98865.72;;;26.30;37.44
71151;BME280;59071;42.138;24.768;2023-08-31T00:44:02;98866.03;;;26.29;37.43
71151;BME280;59071;42.138;24.768;2023-08-31T00:46:30;98863.47;;;26.32;37.25
71151;BME280;59071;42.138;24.768;2023-08-31T00:48:56;98865.69;;;26.39;37.11
71151;BME280;59071;42.138;24.768;2023-08-31T00:51:23;98862.13;;;26.39;36.99
71151;BME280;59071;42.138;24.768;2023-08-31T00:53:49;98845.09;;;26.21;37.29
71151;BME280;59071;42.138;24.768;2023-08-31T00:56:18;98860.88;;;26.36;37.35
71151;BME280;59071;42.138;24.768;2023-08-31T00:58:44;98862.53;;;26.28;37.64
71151;BME280;59071;42.138;24.768;2023-08-31T01:01:27;98871.72;;;26.15;37.84
71151;BME280;59071;42.138;24.768;2023-08-31T01:09:38;98878.28;;;26.14;37.85
71151;BME280;59071;42.138;24.768;2023-08-31T01:12:09;98873.00;;;26.18;38.32
71151;BME280;59071;42.138;24.768;2023-08-31T01:14:43;98866.28;;;26.15;37.79
71151;BME280;59071;42.138;24.768;2023-08-31T01:17:12;98882.03;;;26.01;38.55
71151;BME280;59071;42.138;24.768;2023-08-31T01:19:48;98879.94;;;26.06;38.44
71151;BME280;59071;42.138;24.768;2023-08-31T01:22:39;98876.56;;;26.09;38.05
71151;BME280;59071;42.138;24.768;2023-08-31T01:25:05;98891.34;;;26.08;38.24
71151;BME280;59071;42.138;24.768;2023-08-31T01:27:35;98888.63;;;26.00;38.26
71151;BME280;59071;42.138;24.768;2023-08-31T01:30:03;98888.34;;;25.92;38.44
71151;BME280;59071;42.138;24.768;2023-08-31T01:32:29;98898.91;;;25.94;38.48
71151;BME280;59071;42.138;24.768;2023-08-31T01:34:55;98893.28;;;25.90;38.53
71151;BME280;59071;42.138;24.768;2023-08-31T01:37:42;98897.59;;;26.00;38.98
71151;BME280;59071;42.138;24.768;2023-08-31T01:40:14;98898.53;;;26.04;38.31
71151;BME280;59071;42.138;24.768;2023-08-31T01:42:42;98902.25;;;26.08;38.24
71151;BME280;59071;42.138;24.768;2023-08-31T01:45:10;98907.72;;;26.00;38.15
71151;BME280;59071;42.138;24.768;2023-08-31T01:47:37;98907.72;;;26.00;38.14
71151;BME280;59071;42.138;24.768;2023-08-31T01:50:03;98910.28;;;26.05;38.26
71151;BME280;59071;42.138;24.768;2023-08-31T01:52:29;98912.66;;;26.06;38.12
71151;BME280;59071;42.138;24.768;2023-08-31T01:54:55;98912.00;;;26.09;38.10
71151;BME280;59071;42.138;24.768;2023-08-31T01:57:21;98903.69;;;26.06;37.79
71151;BME280;59071;42.138;24.768;2023-08-31T01:59:46;98909.28;;;26.01;37.82
71151;BME280;59071;42.138;24.768;2023-08-31T02:02:12;98912.44;;;26.20;37.71
71151;BME280;59071;42.138;24.768;2023-08-31T02:04:37;98907.00;;;26.20;37.50
71151;BME280;59071;42.138;24.768;2023-08-31T02:07:03;98917.06;;;26.28;37.29
71151;BME280;59071;42.138;24.768;2023-08-31T02:09:28;98910.97;;;26.31;37.34
71151;BME280;59071;42.138;24.768;2023-08-31T02:11:54;98911.56;;;26.37;37.07
71151;BME280;59071;42.138;24.768;2023-08-31T02:14:19;98923.44;;;26.32;37.19
71151;BME280;59071;42.138;24.768;2023-08-31T02:16:45;98923.50;;;26.24;37.24
71151;BME280;59071;42.138;24.768;2023-08-31T02:19:10;98924.38;;;26.37;36.88
71151;BME280;59071;42.138;24.768;2023-08-31T02:21:36;98919.94;;;26.32;37.11
71151;BME280;59071;42.138;24.768;2023-08-31T02:24:01;98916.50;;;26.44;36.66
71151;BME280;59071;42.138;24.768;2023-08-31T02:26:28;98926.63;;;26.43;36.82
71151;BME280;59071;42.138;24.768;2023-08-31T02:28:53;98923.72;;;26.48;36.97
71151;BME280;59071;42.138;24.768;2023-08-31T02:31:19;98924.91;;;26.30;37.21
71151;BME280;59071;42.138;24.768;2023-08-31T02:33:46;98921.59;;;26.16;37.52
71151;BME280;59071;42.138;24.768;2023-08-31T02:36:12;98925.97;;;26.08;37.41
71151;BME280;59071;42.138;24.768;2023-08-31T02:38:37;98928.69;;;26.08;37.28
71151;BME280;59071;42.138;24.768;2023-08-31T02:41:03;98926.78;;;26.08;37.06
71151;BME280;59071;42.138;24.768;2023-08-31T02:43:28;98930.00;;;26.02;37.61
71151;BME280;59071;42.138;24.768;2023-08-31T02:46:02;98934.44;;;26.06;37.50
71151;BME280;59071;42.138;24.768;2023-08-31T02:48:28;98934.00;;;25.87;37.88
71151;BME280;59071;42.138;24.768;2023-08-31T02:50:56;98933.38;;;25.90;37.77
71151;BME280;59071;42.138;24.768;2023-08-31T02:53:21;98938.78;;;26.07;37.35
71151;BME280;59071;42.138;24.768;2023-08-31T02:55:46;98951.78;;;26.10;37.28
71151;BME280;59071;42.138;24.768;2023-08-31T02:58:12;98951.41;;;26.21;37.43
71151;BME280;59071;42.138;24.768;2023-08-31T03:00:37;98956.41;;;26.19;37.34
71151;BME280;59071;42.138;24.768;2023-08-31T03:03:07;98953.34;;;26.20;37.43
71151;BME280;59071;42.138;24.768;2023-08-31T03:05:33;98957.09;;;26.07;37.42
71151;BME280;59071;42.138;24.768;2023-08-31T03:07:59;98962.38;;;25.94;37.94
71151;BME280;59071;42.138;24.768;2023-08-31T03:10:25;98965.25;;;26.07;37.60
71151;BME280;59071;42.138;24.768;2023-08-31T03:12:50;98970.09;;;25.92;37.78
71151;BME280;59071;42.138;24.768;2023-08-31T03:15:16;98966.56;;;25.92;37.65
71151;BME280;59071;42.138;24.768;2023-08-31T03:17:41;98971.53;;;25.90;37.55
71151;BME280;59071;42.138;24.768;2023-08-31T03:20:07;98963.97;;;25.87;37.76
71151;BME280;59071;42.138;24.768;2023-08-31T03:22:33;98973.47;;;25.89;38.06
71151;BME280;59071;42.138;24.768;2023-08-31T03:24:58;98969.16;;;25.71;38.14
71151;BME280;59071;42.138;24.768;2023-08-31T03:27:24;98970.75;;;25.63;38.24
71151;BME280;59071;42.138;24.768;2023-08-31T03:29:50;98959.25;;;25.40;38.51
71151;BME280;59071;42.138;24.768;2023-08-31T03:32:15;98964.19;;;25.55;38.21
71151;BME280;59071;42.138;24.768;2023-08-31T03:34:41;98955.88;;;25.52;38.45
71151;BME280;59071;42.138;24.768;2023-08-31T03:37:06;98961.63;;;25.77;38.08
71151;BME280;59071;42.138;24.768;2023-08-31T03:39:31;98956.78;;;25.73;38.50
71151;BME280;59071;42.138;24.768;2023-08-31T03:41:57;98957.13;;;25.81;38.17
71151;BME280;59071;42.138;24.768;2023-08-31T03:44:22;98962.41;;;25.86;37.84
71151;BME280;59071;42.138;24.768;2023-08-31T03:46:48;98961.47;;;25.47;38.54
71151;BME280;59071;42.138;24.768;2023-08-31T03:49:14;98961.25;;;25.00;39.32
71151;BME280;59071;42.138;24.768;2023-08-31T03:51:39;98974.78;;;25.31;38.94
71151;BME280;59071;42.138;24.768;2023-08-31T03:54:05;98976.94;;;24.85;39.62
71151;BME280;59071;42.138;24.768;2023-08-31T03:56:30;98974.59;;;25.10;39.34
71151;BME280;59071;42.138;24.768;2023-08-31T03:58:56;98976.50;;;25.09;39.36
71151;BME280;59071;42.138;24.768;2023-08-31T04:01:22;98992.56;;;25.37;38.92
71151;BME280;59071;42.138;24.768;2023-08-31T04:03:48;98988.22;;;25.27;39.19
71151;BME280;59071;42.138;24.768;2023-08-31T04:06:14;98998.97;;;25.41;38.97
71151;BME280;59071;42.138;24.768;2023-08-31T04:08:39;98997.19;;;25.71;38.62
71151;BME280;59071;42.138;24.768;2023-08-31T04:11:05;99000.34;;;25.91;39.39
71151;BME280;59071;42.138;24.768;2023-08-31T04:13:30;99004.69;;;26.01;37.86
71151;BME280;59071;42.138;24.768;2023-08-31T04:15:55;99003.19;;;26.29;38.70
71151;BME280;59071;42.138;24.768;2023-08-31T04:18:24;99013.44;;;26.32;37.72
71151;BME280;59071;42.138;24.768;2023-08-31T04:21:15;99019.03;;;26.36;37.15
71151;BME280;59071;42.138;24.768;2023-08-31T04:23:58;99033.75;;;26.61;37.40
71151;BME280;59071;42.138;24.768;2023-08-31T04:26:25;99038.84;;;27.01;36.74
71151;BME280;59071;42.138;24.768;2023-08-31T04:28:50;99044.78;;;27.24;36.89
71151;BME280;59071;42.138;24.768;2023-08-31T04:31:16;99046.25;;;27.52;36.23
71151;BME280;59071;42.138;24.768;2023-08-31T04:33:42;99045.22;;;27.77;36.10
71151;BME280;59071;42.138;24.768;2023-08-31T04:36:07;99047.69;;;27.91;35.35
71151;BME280;59071;42.138;24.768;2023-08-31T04:38:37;99051.56;;;28.23;34.85
71151;BME280;59071;42.138;24.768;2023-08-31T04:41:03;99049.38;;;28.62;34.14
71151;BME280;59071;42.138;24.768;2023-08-31T04:43:29;99053.63;;;28.72;33.95
71151;BME280;59071;42.138;24.768;2023-08-31T04:45:55;99045.19;;;29.02;33.31
71151;BME280;59071;42.138;24.768;2023-08-31T04:48:21;99057.25;;;29.26;33.12
71151;BME280;59071;42.138;24.768;2023-08-31T04:50:47;99056.75;;;28.50;34.28
71151;BME280;59071;42.138;24.768;2023-08-31T04:53:12;99063.84;;;28.05;35.07
71151;BME280;59071;42.138;24.768;2023-08-31T04:55:38;99071.53;;;28.24;34.74
71151;BME280;59071;42.138;24.768;2023-08-31T04:58:04;99070.66;;;28.44;34.60
71151;BME280;59071;42.138;24.768;2023-08-31T05:00:30;99068.31;;;28.55;33.86
71151;BME280;59071;42.138;24.768;2023-08-31T05:02:55;99078.25;;;28.60;34.32
71151;BME280;59071;42.138;24.768;2023-08-31T05:05:21;99074.28;;;28.94;33.88
71151;BME280;59071;42.138;24.768;2023-08-31T05:07:46;99079.41;;;28.83;33.73
71151;BME280;59071;42.138;24.768;2023-08-31T05:10:12;99085.47;;;29.14;33.71
71151;BME280;59071;42.138;24.768;2023-08-31T05:12:37;99081.66;;;29.43;33.30
71151;BME280;59071;42.138;24.768;2023-08-31T05:15:03;99085.38;;;29.75;33.45
71151;BME280;59071;42.138;24.768;2023-08-31T05:17:29;99079.34;;;29.57;32.92
71151;BME280;59071;42.138;24.768;2023-08-31T05:19:55;99077.47;;;29.86;32.52
71151;BME280;59071;42.138;24.768;2023-08-31T05:22:21;99080.50;;;29.97;32.41
71151;BME280;59071;42.138;24.768;2023-08-31T05:24:47;99088.78;;;30.41;32.08
71151;BME280;59071;42.138;24.768;2023-08-31T05:27:13;99085.16;;;30.85;31.41
71151;BME280;59071;42.138;24.768;2023-08-31T05:29:38;99082.22;;;31.45;30.53
71151;BME280;59071;42.138;24.768;2023-08-31T05:32:04;99081.28;;;31.53;30.28
71151;BME280;59071;42.138;24.768;2023-08-31T05:34:29;99080.28;;;31.45;30.48
71151;BME280;59071;42.138;24.768;2023-08-31T05:36:57;99083.75;;;31.42;31.04
71151;BME280;59071;42.138;24.768;2023-08-31T05:39:23;99081.69;;;31.20;30.99
71151;BME280;59071;42.138;24.768;2023-08-31T05:41:48;99088.69;;;31.17;30.70
71151;BME280;59071;42.138;24.768;2023-08-31T05:44:14;99082.50;;;31.55;30.63
71151;BME280;59071;42.138;24.768;2023-08-31T05:46:39;99080.03;;;31.50;30.24
71151;BME280;59071;42.138;24.768;2023-08-31T05:49:06;99087.38;;;31.82;29.49
71151;BME280;59071;42.138;24.768;2023-08-31T05:51:32;99097.50;;;32.17;29.25
71151;BME280;59071;42.138;24.768;2023-08-31T05:53:57;99090.72;;;32.10;29.30
71151;BME280;59071;42.138;24.768;2023-08-31T05:56:22;99095.19;;;32.61;28.24
71151;BME280;59071;42.138;24.768;2023-08-31T05:58:48;99094.47;;;32.45;28.81
71151;BME280;59071;42.138;24.768;2023-08-31T06:01:15;99092.34;;;32.58;28.29
71151;BME280;59071;42.138;24.768;2023-08-31T06:03:40;99092.59;;;32.49;29.01
71151;BME280;59071;42.138;24.768;2023-08-31T06:06:06;99104.03;;;32.97;28.75
71151;BME280;59071;42.138;24.768;2023-08-31T06:08:32;99102.00;;;32.48;28.79
71151;BME280;59071;42.138;24.768;2023-08-31T06:10:57;99099.28;;;32.28;28.80
71151;BME280;59071;42.138;24.768;2023-08-31T06:13:23;99100.69;;;32.19;28.70
71151;BME280;59071;42.138;24.768;2023-08-31T06:15:49;99094.97;;;31.69;28.98
71151;BME280;59071;42.138;24.768;2023-08-31T06:18:14;99104.94;;;31.96;28.72
71151;BME280;59071;42.138;24.768;2023-08-31T06:20:40;99097.28;;;31.86;29.30
71151;BME280;59071;42.138;24.768;2023-08-31T06:23:05;99098.91;;;32.72;28.23
71151;BME280;59071;42.138;24.768;2023-08-31T06:25:31;99104.41;;;33.45;27.68
71151;BME280;59071;42.138;24.768;2023-08-31T06:27:57;99104.28;;;33.38;27.57
71151;BME280;59071;42.138;24.768;2023-08-31T06:30:23;99111.16;;;34.12;26.46
71151;BME280;59071;42.138;24.768;2023-08-31T06:32:48;99119.28;;;33.67;27.13
71151;BME280;59071;42.138;24.768;2023-08-31T06:35:15;99108.13;;;33.60;26.68
71151;BME280;59071;42.138;24.768;2023-08-31T06:37:41;99118.50;;;32.90;27.84
71151;BME280;59071;42.138;24.768;2023-08-31T06:40:07;99116.88;;;33.66;26.95
71151;BME280;59071;42.138;24.768;2023-08-31T06:42:36;99120.97;;;33.22;27.51
71151;BME280;59071;42.138;24.768;2023-08-31T06:45:03;99117.44;;;32.99;27.85
71151;BME280;59071;42.138;24.768;2023-08-31T06:47:29;99118.41;;;32.41;28.32
71151;BME280;59071;42.138;24.768;2023-08-31T06:49:54;99121.47;;;33.05;27.88
71151;BME280;59071;42.138;24.768;2023-08-31T06:52:19;99117.41;;;32.29;28.06
71151;BME280;59071;42.138;24.768;2023-08-31T06:54:45;99119.22;;;32.87;28.24
71151;BME280;59071;42.138;24.768;2023-08-31T06:57:10;99122.69;;;32.81;27.69
71151;BME280;59071;42.138;24.768;2023-08-31T06:59:36;99119.97;;;33.61;27.32
71151;BME280;59071;42.138;24.768;2023-08-31T07:02:01;99125.56;;;33.38;27.79
71151;BME280;59071;42.138;24.768;2023-08-31T07:04:27;99130.13;;;33.30;27.36
71151;BME280;59071;42.138;24.768;2023-08-31T07:06:52;99129.28;;;34.13;26.84
71151;BME280;59071;42.138;24.768;2023-08-31T07:09:18;99128.31;;;33.98;27.20
71151;BME280;59071;42.138;24.768;2023-08-31T07:11:43;99129.00;;;33.31;27.38
71151;BME280;59071;42.138;24.768;2023-08-31T07:14:09;99131.19;;;33.48;27.15
71151;BME280;59071;42.138;24.768;2023-08-31T07:16:34;99116.75;;;33.28;27.86
71151;BME280;59071;42.138;24.768;2023-08-31T07:19:00;99122.69;;;33.87;27.07
71151;BME280;59071;42.138;24.768;2023-08-31T07:21:25;99116.56;;;33.71;27.32
71151;BME280;59071;42.138;24.768;2023-08-31T07:23:52;99120.88;;;34.36;26.37
71151;BME280;59071;42.138;24.768;2023-08-31T07:26:17;99133.25;;;34.50;26.58
71151;BME280;59071;42.138;24.768;2023-08-31T07:28:43;99125.06;;;33.09;27.83
71151;BME280;59071;42.138;24.768;2023-08-31T07:31:08;99126.34;;;33.38;27.38
71151;BME280;59071;42.138;24.768;2023-08-31T07:33:34;99132.72;;;34.03;27.04
71151;BME280;59071;42.138;24.768;2023-08-31T07:36:00;99127.75;;;34.53;26.01
71151;BME280;59071;42.138;24.768;2023-08-31T07:38:27;99131.34;;;34.16;26.82
71151;BME280;59071;42.138;24.768;2023-08-31T07:40:53;99124.03;;;34.72;26.27
71151;BME280;59071;42.138;24.768;2023-08-31T07:43:18;99139.75;;;35.16;25.40
71151;BME280;59071;42.138;24.768;2023-08-31T07:45:44;99129.69;;;34.87;25.15
71151;BME280;59071;42.138;24.768;2023-08-31T07:48:09;99130.28;;;34.28;25.97
71151;BME280;59071;42.138;24.768;2023-08-31T07:50:35;99128.16;;;34.93;25.54
71151;BME280;59071;42.138;24.768;2023-08-31T07:53:00;99124.97;;;35.46;24.75
71151;BME280;59071;42.138;24.768;2023-08-31T07:55:25;99129.94;;;35.81;24.76
71151;BME280;59071;42.138;24.768;2023-08-31T07:57:51;99124.41;;;35.81;24.63
71151;BME280;59071;42.138;24.768;2023-08-31T08:00:17;99114.22;;;36.14;24.15
71151;BME280;59071;42.138;24.768;2023-08-31T08:02:44;99113.91;;;36.37;23.60
71151;BME280;59071;42.138;24.768;2023-08-31T08:05:09;99116.19;;;36.07;23.99
71151;BME280;59071;42.138;24.768;2023-08-31T08:07:35;99112.38;;;35.52;24.15
71151;BME280;59071;42.138;24.768;2023-08-31T08:10:00;99112.72;;;34.88;25.11
71151;BME280;59071;42.138;24.768;2023-08-31T08:12:26;99115.00;;;34.79;25.23
71151;BME280;59071;42.138;24.768;2023-08-31T08:14:51;99107.03;;;35.88;24.53
71151;BME280;59071;42.138;24.768;2023-08-31T08:17:17;99108.34;;;36.27;23.85
71151;BME280;59071;42.138;24.768;2023-08-31T08:19:42;99107.97;;;36.32;23.65
71151;BME280;59071;42.138;24.768;2023-08-31T08:22:07;99100.38;;;36.14;23.98
71151;BME280;59071;42.138;24.768;2023-08-31T08:24:33;99099.06;;;35.69;24.10
71151;BME280;59071;42.138;24.768;2023-08-31T08:26:58;99104.34;;;36.13;23.92
71151;BME280;59071;42.138;24.768;2023-08-31T08:29:24;99100.78;;;36.16;23.37
71151;BME280;59071;42.138;24.768;2023-08-31T08:31:50;99098.50;;;36.54;22.82
71151;BME280;59071;42.138;24.768;2023-08-31T08:34:15;99096.38;;;35.97;23.19
71151;BME280;59071;42.138;24.768;2023-08-31T08:36:41;99096.28;;;35.10;24.31
71151;BME280;59071;42.138;24.768;2023-08-31T08:39:06;99087.69;;;35.95;23.68
71151;BME280;59071;42.138;24.768;2023-08-31T08:41:33;99090.78;;;35.83;24.12
71151;BME280;59071;42.138;24.768;2023-08-31T08:44:02;99098.13;;;36.56;23.03
71151;BME280;59071;42.138;24.768;2023-08-31T08:46:30;99092.19;;;36.93;22.70
71151;BME280;59071;42.138;24.768;2023-08-31T08:48:58;99099.31;;;37.30;22.69
71151;BME280;59071;42.138;24.768;2023-08-31T08:51:27;99101.69;;;37.28;22.40
71151;BME280;59071;42.138;24.768;2023-08-31T08:53:52;99093.31;;;36.38;23.27
71151;BME280;59071;42.138;24.768;2023-08-31T08:56:19;99093.75;;;36.62;22.59
71151;BME280;59071;42.138;24.768;2023-08-31T08:58:44;99093.34;;;36.35;22.65
71151;BME280;59071;42.138;24.768;2023-08-31T09:01:10;99094.59;;;36.81;22.98
71151;BME280;59071;42.138;24.768;2023-08-31T09:03:36;99091.00;;;36.98;22.02
71151;BME280;59071;42.138;24.768;2023-08-31T09:06:02;99089.41;;;37.08;22.24
71151;BME280;59071;42.138;24.768;2023-08-31T09:08:29;99083.47;;;36.84;22.19
71151;BME280;59071;42.138;24.768;2023-08-31T09:10:56;99087.06;;;36.77;22.93
71151;BME280;59071;42.138;24.768;2023-08-31T09:13:28;99089.81;;;36.81;22.98
71151;BME280;59071;42.138;24.768;2023-08-31T09:15:54;99077.94;;;36.84;21.43
71151;BME280;59071;42.138;24.768;2023-08-31T09:18:24;99084.28;;;36.85;21.29
71151;BME280;59071;42.138;24.768;2023-08-31T09:20:50;99085.47;;;36.66;22.15
71151;BME280;59071;42.138;24.768;2023-08-31T09:23:16;99077.56;;;36.71;22.55
71151;BME280;59071;42.138;24.768;2023-08-31T09:25:49;99086.25;;;36.48;22.31
71151;BME280;59071;42.138;24.768;2023-08-31T09:28:16;99087.81;;;36.56;21.70
71151;BME280;59071;42.138;24.768;2023-08-31T09:30:42;99074.84;;;35.55;22.51
71151;BME280;59071;42.138;24.768;2023-08-31T09:33:09;99079.97;;;35.49;23.01
71151;BME280;59071;42.138;24.768;2023-08-31T09:35:39;99084.41;;;35.05;22.71
71151;BME280;59071;42.138;24.768;2023-08-31T09:38:08;99073.84;;;35.18;22.80
71151;BME280;59071;42.138;24.768;2023-08-31T09:40:35;99075.94;;;35.32;23.93
71151;BME280;59071;42.138;24.768;2023-08-31T09:43:01;99079.78;;;36.12;23.16
71151;BME280;59071;42.138;24.768;2023-08-31T09:45:31;99079.09;;;36.33;22.66
71151;BME280;59071;42.138;24.768;2023-08-31T09:47:59;99079.50;;;36.56;22.18
71151;BME280;59071;42.138;24.768;2023-08-31T09:50:28;99073.59;;;36.83;21.51
71151;BME280;59071;42.138;24.768;2023-08-31T09:52:54;99065.63;;;37.03;20.84
71151;BME280;59071;42.138;24.768;2023-08-31T09:55:21;99073.94;;;36.31;22.23
71151;BME280;59071;42.138;24.768;2023-08-31T09:57:50;99080.28;;;36.53;23.17
71151;BME280;59071;42.138;24.768;2023-08-31T10:00:16;99080.28;;;36.50;22.60
71151;BME280;59071;42.138;24.768;2023-08-31T10:02:44;99078.31;;;36.57;22.72
71151;BME280;59071;42.138;24.768;2023-08-31T10:05:09;99079.91;;;36.58;22.04
71151;BME280;59071;42.138;24.768;2023-08-31T10:07:35;99077.91;;;36.37;22.86
71151;BME280;59071;42.138;24.768;2023-08-31T10:10:02;99086.19;;;36.23;23.18
71151;BME280;59071;42.138;24.768;2023-08-31T10:12:27;99081.88;;;36.62;22.54
71151;BME280;59071;42.138;24.768;2023-08-31T10:14:54;99073.94;;;36.42;22.25
71151;BME280;59071;42.138;24.768;2023-08-31T10:17:20;99079.00;;;36.08;22.63
71151;BME280;59071;42.138;24.768;2023-08-31T10:19:47;99074.25;;;36.12;23.04
71151;BME280;59071;42.138;24.768;2023-08-31T10:22:12;99077.03;;;36.12;23.14
71151;BME280;59071;42.138;24.768;2023-08-31T10:24:57;99075.94;;;36.27;22.52
71151;BME280;59071;42.138;24.768;2023-08-31T10:27:24;99062.78;;;35.99;23.19
71151;BME280;59071;42.138;24.768;2023-08-31T10:29:49;99073.84;;;35.95;23.10
71151;BME280;59071;42.138;24.768;2023-08-31T10:32:18;99066.78;;;36.12;22.67
71151;BME280;59071;42.138;24.768;2023-08-31T10:35:04;99075.16;;;36.45;22.88
71151;BME280;59071;42.138;24.768;2023-08-31T10:37:29;99066.81;;;36.52;22.68
71151;BME280;59071;42.138;24.768;2023-08-31T10:40:07;99065.13;;;35.93;22.53
71151;BME280;59071;42.138;24.768;2023-08-31T10:42:33;99068.31;;;36.06;23.06
71151;BME280;59071;42.138;24.768;2023-08-31T10:45:07;99077.00;;;35.94;22.66
71151;BME280;59071;42.138;24.768;2023-08-31T10:47:42;99065.94;;;36.01;22.66
71151;BME280;59071;42.138;24.768;2023-08-31T10:50:21;99071.53;;;36.19;22.23
71151;BME280;59071;42.138;24.768;2023-08-31T10:52:47;99075.00;;;35.91;23.26
71151;BME280;59071;42.138;24.768;2023-08-31T10:55:13;99073.47;;;36.08;23.04
71151;BME280;59071;42.138;24.768;2023-08-31T10:57:40;99078.16;;;35.82;23.55
71151;BME280;59071;42.138;24.768;2023-08-31T11:00:07;99075.00;;;35.91;23.20
71151;BME280;59071;42.138;24.768;2023-08-31T11:05:11;99074.97;;;35.80;22.58
71151;BME280;59071;42.138;24.768;2023-08-31T11:07:38;99076.44;;;35.56;23.08
71151;BME280;59071;42.138;24.768;2023-08-31T11:10:14;99069.81;;;35.75;23.07
71151;BME280;59071;42.138;24.768;2023-08-31T11:12:42;99082.00;;;35.67;23.47
71151;BME280;59071;42.138;24.768;2023-08-31T11:15:10;99073.81;;;35.85;22.91
71151;BME280;59071;42.138;24.768;2023-08-31T11:17:36;99065.56;;;36.03;22.04
71151;BME280;59071;42.138;24.768;2023-08-31T11:20:02;99062.34;;;35.90;22.74
71151;BME280;59071;42.138;24.768;2023-08-31T11:22:30;99070.69;;;35.93;22.35
71151;BME280;59071;42.138;24.768;2023-08-31T11:24:56;99066.00;;;36.23;21.81
71151;BME280;59071;42.138;24.768;2023-08-31T11:27:22;99062.06;;;36.42;22.45
71151;BME280;59071;42.138;24.768;2023-08-31T11:29:47;99069.22;;;36.43;23.14
71151;BME280;59071;42.138;24.768;2023-08-31T11:32:13;99064.06;;;36.45;22.21
71151;BME280;59071;42.138;24.768;2023-08-31T11:34:44;99063.25;;;36.48;21.87
71151;BME280;59071;42.138;24.768;2023-08-31T11:37:11;99053.75;;;36.63;21.72
71151;BME280;59071;42.138;24.768;2023-08-31T11:39:41;99050.25;;;36.73;22.39
71151;BME280;59071;42.138;24.768;2023-08-31T11:42:08;99055.75;;;36.88;22.73
71151;BME280;59071;42.138;24.768;2023-08-31T11:44:33;99049.84;;;36.68;22.31
71151;BME280;59071;42.138;24.768;2023-08-31T11:46:59;99052.63;;;36.78;22.78
71151;BME280;59071;42.138;24.768;2023-08-31T11:49:27;99050.63;;;36.72;22.55
71151;BME280;59071;42.138;24.768;2023-08-31T11:51:53;99045.09;;;36.79;22.80
71151;BME280;59071;42.138;24.768;2023-08-31T11:54:18;99043.88;;;36.62;22.70
71151;BME280;59071;42.138;24.768;2023-08-31T11:56:45;99046.19;;;35.99;22.92
71151;BME280;59071;42.138;24.768;2023-08-31T11:59:18;99042.22;;;36.00;22.82
71151;BME280;59071;42.138;24.768;2023-08-31T12:01:46;99043.06;;;36.22;23.43
71151;BME280;59071;42.138;24.768;2023-08-31T12:04:14;99041.91;;;36.48;23.67
71151;BME280;59071;42.138;24.768;2023-08-31T12:06:40;99041.44;;;36.03;23.51
71151;BME280;59071;42.138;24.768;2023-08-31T12:09:09;99036.88;;;35.48;23.99
71151;BME280;59071;42.138;24.768;2023-08-31T12:11:35;99039.91;;;35.21;24.46
71151;BME280;59071;42.138;24.768;2023-08-31T12:14:01;99034.09;;;35.44;24.01
71151;BME280;59071;42.138;24.768;2023-08-31T12:16:35;99038.31;;;35.20;24.83
71151;BME280;59071;42.138;24.768;2023-08-31T12:19:04;99030.66;;;34.99;25.36
71151;BME280;59071;42.138;24.768;2023-08-31T12:21:33;99038.19;;;34.51;25.89
71151;BME280;59071;42.138;24.768;2023-08-31T12:23:59;99030.13;;;34.31;25.64
71151;BME280;59071;42.138;24.768;2023-08-31T12:26:25;99025.59;;;34.12;25.36
71151;BME280;59071;42.138;24.768;2023-08-31T12:28:51;99031.59;;;34.18;25.21
71151;BME280;59071;42.138;24.768;2023-08-31T12:31:17;99036.50;;;34.01;25.21
71151;BME280;59071;42.138;24.768;2023-08-31T12:33:42;99038.63;;;33.78;26.23
71151;BME280;59071;42.138;24.768;2023-08-31T12:36:08;99027.56;;;34.15;25.75
71151;BME280;59071;42.138;24.768;2023-08-31T12:38:33;99031.19;;;34.16;25.09
71151;BME280;59071;42.138;24.768;2023-08-31T12:40:59;99029.34;;;34.34;25.27
71151;BME280;59071;42.138;24.768;2023-08-31T12:43:24;99032.75;;;34.65;24.92
71151;BME280;59071;42.138;24.768;2023-08-31T12:45:50;99025.34;;;34.73;24.02
71151;BME280;59071;42.138;24.768;2023-08-31T12:48:15;99026.91;;;34.70;24.66
71151;BME280;59071;42.138;24.768;2023-08-31T12:50:41;99016.28;;;34.72;24.60
71151;BME280;59071;42.138;24.768;2023-08-31T12:53:06;99015.16;;;34.77;23.92
71151;BME280;59071;42.138;24.768;2023-08-31T12:55:32;99009.59;;;34.73;24.41